Time;durP1;ratioP1;P1;durP2;ratioP2;P2;SDS_P1;SDS_P2;PMS_P1;PMS_P2;Temp;Humidity;BMP_temperature;BMP_pressure;BME280_temperature;BME280_humidity;BME280_pressure;Samples;Min_cycle;Max_cycle;Signal;HPM_P1;HPM_P2
2023/05/31 00:01:02;;;;;;;;;;;;;;;;;;137544;1274;22320;-81
2023/05/31 00:04:06;;;;;;;;;;;;;;;;;;137363;1274;22544;-80
2023/05/31 00:07:09;;;;;;;;;;;;;;;;;;137347;1274;22506;-80
2023/05/31 00:10:11;;;;;;;;;;;;;;;;;;137404;1274;22505;-81
2023/05/31 00:13:13;;;;;;;;;;;;;;;;;;137456;1274;22477;-80
2023/05/31 00:16:16;;;;;;;;;;;;;;;;;;137388;1274;22488;-80
2023/05/31 00:19:18;;;;;;;;;;;;;;;;;;137461;1274;22490;-80
2023/05/31 00:22:21;;;;;;;;;;;;;;;;;;137399;1274;23060;-80
2023/05/31 00:25:23;;;;;;;;;;;;;;;;;;137382;1267;22502;-82
2023/05/31 00:28:26;;;;;;;;;;;;;;;;;;137489;1274;22329;-81
2023/05/31 00:31:29;;;;;;;;;;;;;;;;;;137280;1274;23347;-81
2023/05/31 00:34:32;;;;;;;;;;;;;;;;;;137383;1274;22659;-79
2023/05/31 00:37:37;;;;;;;;;;;;;;;;;;137439;1274;22576;-79
2023/05/31 00:40:39;;;;;;;;;;;;;;;;;;137452;1274;22544;-79
2023/05/31 00:43:42;;;;;;;;;;;;;;;;;;137440;1274;22879;-78
2023/05/31 00:46:44;;;;;;;;;;;;;;;;;;137403;1274;22669;-79
2023/05/31 00:49:47;;;;;;;;;;;;;;;;;;137361;1274;23018;-79
2023/05/31 00:52:49;;;;;;;;;;;;;;;;;;137498;1274;22545;-78
2023/05/31 00:55:51;;;;;;;;;;;;;;;;;;137357;1274;22532;-79
2023/05/31 00:58:55;;;;;;;;;;;;;;;;;;137416;1274;22568;-79
2023/05/31 01:01:57;;;;;;;;;;;;;;;;;;137486;1274;22528;-79
2023/05/31 01:05:00;;;;;;;;;;;;;;;;;;137502;1274;22714;-79
2023/05/31 01:08:02;;;;;;;;;;;;;;;;;;137455;1274;22563;-79
2023/05/31 01:11:07;;;;;;;;;;;;;;;;;;137482;1274;22578;-80
2023/05/31 01:14:10;;;;;;;;;;;;;;;;;;137435;1274;22509;-79
2023/05/31 01:17:13;;;;;;;;;;;;;;;;;;137470;1274;23097;-80
2023/05/31 01:20:15;;;;;;;;;;;;;;;;;;137327;1274;22974;-79
2023/05/31 01:23:18;;;;;;;;;;;;;;;;;;137478;1274;22505;-79
2023/05/31 01:26:20;;;;;;;;;;;;;;;;;;137461;1274;22892;-80
2023/05/31 01:29:23;;;;;;;;;;;;;;;;;;137518;1274;22827;-79
2023/05/31 01:32:26;;;;;;;;;;;;;;;;;;137426;1274;22570;-79
2023/05/31 01:35:28;;;;;;;;;;;;;;;;;;137407;1274;22520;-78
2023/05/31 01:38:30;;;;;;;;;;;;;;;;;;137537;1274;22279;-78
2023/05/31 01:41:34;;;;;;;;;;;;;;;;;;137429;1274;22535;-80
2023/05/31 01:44:37;;;;;;;;;;;;;;;;;;137401;1274;22552;-78
2023/05/31 01:47:40;;;;;;;;;;;;;;;;;;137240;1274;23039;-80
2023/05/31 01:50:43;;;;;;;;;;;;;;;;;;137575;1259;22529;-80
2023/05/31 01:53:45;;;;;;;;;;;;;;;;;;137434;1274;22955;-80
2023/05/31 01:56:48;;;;;;;;;;;;;;;;;;137338;1274;22539;-82
2023/05/31 01:59:50;;;;;;;;;;;;;;;;;;137474;1274;22485;-79
2023/05/31 02:02:53;;;;;;;;;;;;;;;;;;137368;1274;22524;-80
2023/05/31 02:05:56;;;;;;;;;;;;;;;;;;137383;1260;22508;-79
2023/05/31 02:08:58;;;;;;;;;;;;;;;;;;137463;1274;22562;-79
2023/05/31 02:12:01;;;;;;;;;;;;;;;;;;137519;1274;22850;-79
2023/05/31 02:15:04;;;;;;;;;;;;;;;;;;137489;1274;23056;-80
2023/05/31 02:18:06;;;;;;;;;;;;;;;;;;137414;1274;22537;-79
2023/05/31 02:21:08;;;;;;;;;;;;;;;;;;137439;1274;22488;-82
2023/05/31 02:24:11;;;;;;;;;;;;;;;;;;137354;1274;24353;-79
2023/05/31 02:27:13;;;;;;;;;;;;;;;;;;137506;1274;22538;-81
2023/05/31 02:30:16;;;;;;;;;;;;;;;;;;137415;1274;22565;-79
2023/05/31 02:33:18;;;;;;;;;;;;;;;;;;137435;1274;22510;-80
2023/05/31 02:36:21;;;;;;;;;;;;;;;;;;137543;1274;22286;-82
2023/05/31 02:39:23;;;;;;;;;;;;;;;;;;137489;1274;22334;-80
2023/05/31 02:42:26;;;;;;;;;;;;;;;;;;137471;1274;22537;-81
2023/05/31 02:45:28;;;;;;;;;;;;;;;;;;137336;1274;22570;-81
2023/05/31 02:48:31;;;;;;;;;;;;;;;;;;137481;1274;22536;-81
2023/05/31 02:51:33;;;;;;;;;;;;;;;;;;137501;1274;22305;-80
2023/05/31 02:54:36;;;;;;;;;;;;;;;;;;137353;1274;22834;-79
2023/05/31 02:57:38;;;;;;;;;;;;;;;;;;137331;1274;22589;-80
2023/05/31 03:00:40;;;;;;;;;;;;;;;;;;137479;1274;22335;-78
2023/05/31 03:03:43;;;;;;;;;;;;;;;;;;137448;1274;22501;-79
2023/05/31 03:06:46;;;;;;;;;;;;;;;;;;137436;1274;22482;-80
2023/05/31 03:09:48;;;;;;;;;;;;;;;;;;137443;1274;22580;-79
2023/05/31 03:12:50;;;;;;;;;;;;;;;;;;137559;1274;22335;-80
2023/05/31 03:15:56;;;;;;;;;;;;;;;;;;137786;1274;22350;-78
2023/05/31 03:18:58;;;;;;;;;;;;;;;;;;137764;1274;22963;-79
2023/05/31 03:22:01;;;;;;;;;;;;;;;;;;137201;1274;22568;-78
2023/05/31 03:25:07;;;;;;;;;;;;;;;;;;137234;1274;22550;-79
2023/05/31 03:28:09;;;;;;;;;;;;;;;;;;137437;1274;22470;-79
2023/05/31 03:31:12;;;;;;;;;;;;;;;;;;137454;1274;22548;-81
2023/05/31 03:34:15;;;;;;;;;;;;;;;;;;137480;1274;23079;-78
2023/05/31 03:37:18;;;;;;;;;;;;;;;;;;137402;1274;22529;-80
2023/05/31 03:40:20;;;;;;;;;;;;;;;;;;137353;1274;22940;-80
2023/05/31 03:43:23;;;;;;;;;;;;;;;;;;137438;1274;23109;-80
2023/05/31 03:46:25;;;;;;;;;;;;;;;;;;137459;1274;22494;-80
2023/05/31 03:49:28;;;;;;;;;;;;;;;;;;137468;1274;22292;-79
2023/05/31 03:52:30;;;;;;;;;;;;;;;;;;137470;1269;22767;-79
2023/05/31 03:55:33;;;;;;;;;;;;;;;;;;137432;1274;22339;-80
2023/05/31 03:58:35;;;;;;;;;;;;;;;;;;137455;1274;22282;-80
2023/05/31 04:01:38;;;;;;;;;;;;;;;;;;137412;1274;22356;-81
2023/05/31 04:04:40;;;;;;;;;;;;;;;;;;137451;1274;22350;-81
2023/05/31 04:07:43;;;;;;;;;;;;;;;;;;137388;1274;22630;-81
2023/05/31 04:10:45;;;;;;;;;;;;;;;;;;137433;1274;22506;-82
2023/05/31 04:13:48;;;;;;;;;;;;;;;;;;137498;1274;22365;-81
2023/05/31 04:16:50;;;;;;;;;;;;;;;;;;137431;1268;22501;-81
2023/05/31 04:19:53;;;;;;;;;;;;;;;;;;137466;1274;22289;-81
2023/05/31 04:22:56;;;;;;;;;;;;;;;;;;137444;1274;22943;-81
2023/05/31 04:26:00;;;;;;;;;;;;;;;;;;137393;1274;22530;-81
2023/05/31 04:29:03;;;;;;;;;;;;;;;;;;137449;1274;22521;-81
2023/05/31 04:32:07;;;;;;;;;;;;;;;;;;137426;1274;22365;-81
2023/05/31 04:35:10;;;;;;;;;;;;;;;;;;137445;1272;22314;-82
2023/05/31 04:38:14;;;;;;;;;;;;;;;;;;137435;1274;22376;-81
2023/05/31 04:41:16;;;;;;;;;;;;;;;;;;137462;1274;22805;-82
2023/05/31 04:44:19;;;;;;;;;;;;;;;;;;137288;1274;22511;-82
2023/05/31 04:47:22;;;;;;;;;;;;;;;;;;137429;1274;22326;-82
2023/05/31 04:50:25;;;;;;;;;;;;;;;;;;137425;1274;22362;-82
2023/05/31 04:53:27;;;;;;;;;;;;;;;;;;137342;1274;22376;-82
2023/05/31 04:56:30;;;;;;;;;;;;;;;;;;137415;1274;23113;-81
2023/05/31 04:59:32;;;;;;;;;;;;;;;;;;137422;1274;22266;-81
2023/05/31 05:02:35;;;;;;;;;;;;;;;;;;137423;1274;22262;-82
2023/05/31 05:05:38;;;;;;;;;;;;;;;;;;137466;1274;22329;-80
2023/05/31 05:08:40;;;;;;;;;;;;;;;;;;137372;1274;22335;-83
2023/05/31 05:11:43;;;;;;;;;;;;;;;;;;137403;1267;22322;-82
2023/05/31 05:14:45;;;;;;;;;;;;;;;;;;137398;1274;22277;-81
2023/05/31 05:17:48;;;;;;;;;;;;;;;;;;137378;1274;22348;-83
2023/05/31 05:20:51;;;;;;;;;;;;;;;;;;137376;1274;22337;-83
2023/05/31 05:23:53;;;;;;;;;;;;;;;;;;137471;1274;22356;-84
2023/05/31 05:26:56;;;;;;;;;;;;;;;;;;137445;1274;22326;-80
2023/05/31 05:29:58;;;;;;;;;;;;;;;;;;137378;1274;22331;-82
2023/05/31 05:33:00;;;;;;;;;;;;;;;;;;137410;1274;22275;-81
2023/05/31 05:36:03;;;;;;;;;;;;;;;;;;137424;1274;22323;-81
2023/05/31 05:39:06;;;;;;;;;;;;;;;;;;137409;1274;22918;-81
2023/05/31 05:42:08;;;;;;;;;;;;;;;;;;137467;1274;22313;-81
2023/05/31 05:45:11;;;;;;;;;;;;;;;;;;137424;1274;22916;-81
2023/05/31 05:48:14;;;;;;;;;;;;;;;;;;137423;1274;22291;-81
2023/05/31 05:51:16;;;;;;;;;;;;;;;;;;137409;1274;22777;-81
2023/05/31 05:54:19;;;;;;;;;;;;;;;;;;137132;1274;22520;-81
2023/05/31 05:57:21;;;;;;;;;;;;;;;;;;137434;1274;22414;-81
2023/05/31 06:00:24;;;;;;;;;;;;;;;;;;137447;1274;22970;-82
2023/05/31 06:03:27;;;;;;;;;;;;;;;;;;137403;1274;23006;-82
2023/05/31 06:06:31;;;;;;;;;;;;;;;;;;137326;1274;22315;-81
2023/05/31 06:09:34;;;;;;;;;;;;;;;;;;137417;1274;22737;-82
2023/05/31 06:12:36;;;;;;;;;;;;;;;;;;137428;1274;22526;-84
2023/05/31 06:15:42;;;;;;;;;;;;;;;;;;137191;1274;22505;-85
2023/05/31 06:18:45;;;;;;;;;;;;;;;;;;137500;1274;22553;-84
2023/05/31 06:21:49;;;;;;;;;;;;;;;;;;137458;1274;22508;-84
2023/05/31 06:24:51;;;;;;;;;;;;;;;;;;137457;1274;22532;-85
2023/05/31 06:27:57;;;;;;;;;;;;;;;;;;137471;1274;22279;-84
2023/05/31 06:31:00;;;;;;;;;;;;;;;;;;137510;1274;23078;-83
2023/05/31 06:34:03;;;;;;;;;;;;;;;;;;137527;1274;22371;-81
2023/05/31 06:37:08;;;;;;;;;;;;;;;;;;137556;1274;22331;-84
2023/05/31 06:40:11;;;;;;;;;;;;;;;;;;137537;1274;22286;-82
2023/05/31 06:43:15;;;;;;;;;;;;;;;;;;137512;1274;22385;-83
2023/05/31 06:46:18;;;;;;;;;;;;;;;;;;137660;1274;22468;-83
2023/05/31 06:49:20;;;;;;;;;;;;;;;;;;137586;1274;22438;-83
2023/05/31 06:52:23;;;;;;;;;;;;;;;;;;137654;1274;22356;-82
2023/05/31 06:55:28;;;;;;;;;;;;;;;;;;137704;1274;22421;-83
2023/05/31 06:58:31;;;;;;;;;;;;;;;;;;137502;1274;185350;-82
2023/05/31 07:01:33;;;;;;;;;;;;;;;;;;137589;1274;22345;-82
2023/05/31 07:04:36;;;;;;;;;;;;;;;;;;137629;1274;22394;-83
2023/05/31 07:07:39;;;;;;;;;;;;;;;;;;137597;1274;22500;-83
2023/05/31 07:10:41;;;;;;;;;;;;;;;;;;137551;1262;22418;-83
2023/05/31 07:13:44;;;;;;;;;;;;;;;;;;137428;1274;22521;-83
2023/05/31 07:16:49;;;;;;;;;;;;;;;;;;137423;1274;22513;-81
2023/05/31 07:19:52;;;;;;;;;;;;;;;;;;137442;1274;22263;-83
2023/05/31 07:22:54;;;;;;;;;;;;;;;;;;137345;1268;22494;-84
2023/05/31 07:26:00;;;;;;;;;;;;;;;;;;137339;1274;22315;-84
2023/05/31 07:29:03;;;;;;;;;;;;;;;;;;137335;1274;23305;-84
2023/05/31 07:32:05;;;;;;;;;;;;;;;;;;137457;1274;22503;-85
2023/05/31 07:35:08;;;;;;;;;;;;;;;;;;137169;1274;23017;-85
2023/05/31 07:38:11;;;;;;;;;;;;;;;;;;137163;1274;22495;-84
2023/05/31 07:41:13;;;;;;;;;;;;;;;;;;137423;1274;22325;-82
2023/05/31 07:44:16;;;;;;;;;;;;;;;;;;137431;1274;22476;-84
2023/05/31 07:47:19;;;;;;;;;;;;;;;;;;137358;1274;22277;-83
2023/05/31 07:50:22;;;;;;;;;;;;;;;;;;137451;1274;22252;-84
2023/05/31 07:53:25;;;;;;;;;;;;;;;;;;137419;1274;22351;-82
2023/05/31 07:56:27;;;;;;;;;;;;;;;;;;137315;1274;22271;-84
2023/05/31 07:59:31;;;;;;;;;;;;;;;;;;137441;1274;22326;-84
2023/05/31 08:02:34;;;;;;;;;;;;;;;;;;137403;1274;22290;-83
2023/05/31 08:05:36;;;;;;;;;;;;;;;;;;137397;1274;22717;-83
2023/05/31 08:08:42;;;;;;;;;;;;;;;;;;137418;1274;22787;-83
2023/05/31 08:11:46;;;;;;;;;;;;;;;;;;137487;1274;22877;-87
2023/05/31 08:14:50;;;;;;;;;;;;;;;;;;137453;1270;23015;-84
2023/05/31 08:17:53;;;;;;;;;;;;;;;;;;137542;1274;22809;-86
2023/05/31 08:20:55;;;;;;;;;;;;;;;;;;137463;1274;22291;-85
2023/05/31 08:24:07;;;;;;;;;;;;;;;;;;137420;1266;22268;-85
2023/05/31 08:27:09;;;;;;;;;;;;;;;;;;137440;1274;22659;-85
2023/05/31 08:30:17;;;;;;;;;;;;;;;;;;137416;1274;22313;-85
2023/05/31 08:33:20;;;;;;;;;;;;;;;;;;137458;1274;22409;-84
2023/05/31 08:36:22;;;;;;;;;;;;;;;;;;137313;1274;22553;-82
2023/05/31 08:39:25;;;;;;;;;;;;;;;;;;137381;1274;22484;-84
2023/05/31 08:42:28;;;;;;;;;;;;;;;;;;137475;1274;22417;-83
2023/05/31 08:45:31;;;;;;;;;;;;;;;;;;137474;1274;22925;-82
2023/05/31 08:48:33;;;;;;;;;;;;;;;;;;137478;1262;22469;-82
2023/05/31 08:51:36;;;;;;;;;;;;;;;;;;137395;1274;22908;-85
2023/05/31 08:54:39;;;;;;;;;;;;;;;;;;137527;1274;22331;-84
2023/05/31 08:57:44;;;;;;;;;;;;;;;;;;137493;1274;22885;-83
2023/05/31 09:00:47;;;;;;;;;;;;;;;;;;137470;1274;22355;-84
2023/05/31 09:03:50;;;;;;;;;;;;;;;;;;137463;1274;22385;-83
2023/05/31 09:06:53;;;;;;;;;;;;;;;;;;137461;1274;22404;-81
2023/05/31 09:09:55;;;;;;;;;;;;;;;;;;137452;1274;22399;-84
2023/05/31 09:12:59;;;;;;;;;;;;;;;;;;137466;1274;23051;-85
2023/05/31 09:16:02;;;;;;;;;;;;;;;;;;137490;1274;22285;-86
2023/05/31 09:19:07;;;;;;;;;;;;;;;;;;137455;1274;22272;-84
2023/05/31 09:53:10;;;;;;;;;;;;;;;;;;132955;1311;544646;-82
2023/05/31 09:56:13;;;;;;;;;;;;;;;;;;136457;1286;22343;-82
2023/05/31 09:59:15;;;;;;;;;;;;;;;;;;136479;1282;22705;-82
2023/05/31 10:02:20;;;;;;;;;;;;;;;;;;137012;1279;22825;-83
2023/05/31 10:05:22;;;;;;;;;;;;;;;;;;136939;1276;162892;-85
2023/05/31 10:08:25;;;;;;;;;;;;;;;;;;137226;1276;22279;-81
2023/05/31 10:11:28;;;;;;;;;;;;;;;;;;137143;1264;22471;-82
2023/05/31 10:14:31;;;;;;;;;;;;;;;;;;137216;1265;22254;-83
2023/05/31 10:17:33;;;;;;;;;;;;;;;;;;137096;1276;22461;-83
2023/05/31 10:20:36;;;;;;;;;;;;;;;;;;137226;1276;22453;-83
2023/05/31 10:23:38;;;;;;;;;;;;;;;;;;137137;1276;22535;-83
2023/05/31 10:26:41;;;;;;;;;;;;;;;;;;137069;1276;23047;-83
2023/05/31 10:29:43;;;;;;;;;;;;;;;;;;137170;1276;22504;-82
2023/05/31 10:32:46;;;;;;;;;;;;;;;;;;137193;1276;22351;-83
2023/05/31 10:35:50;;;;;;;;;;;;;;;;;;137200;1276;22337;-82
2023/05/31 10:38:53;;;;;;;;;;;;;;;;;;137165;1265;22322;-83
2023/05/31 10:41:55;;;;;;;;;;;;;;;;;;137201;1276;22913;-83
2023/05/31 10:44:58;;;;;;;;;;;;;;;;;;137180;1276;22726;-83
2023/05/31 10:48:03;;;;;;;;;;;;;;;;;;137208;1276;22350;-80
2023/05/31 10:51:06;;;;;;;;;;;;;;;;;;136970;1276;22508;-84
2023/05/31 10:54:09;;;;;;;;;;;;;;;;;;136849;1276;22498;-80
2023/05/31 10:57:11;;;;;;;;;;;;;;;;;;136977;1276;22592;-84
2023/05/31 11:00:14;;;;;;;;;;;;;;;;;;137046;1273;22511;-84
2023/05/31 11:03:16;;;;;;;;;;;;;;;;;;136944;1276;22498;-84
2023/05/31 11:06:19;;;;;;;;;;;;;;;;;;137220;1276;22337;-84
2023/05/31 11:09:21;;;;;;;;;;;;;;;;;;137173;1273;22503;-83
2023/05/31 11:12:24;;;;;;;;;;;;;;;;;;136843;1264;22487;-84
2023/05/31 11:15:26;;;;;;;;;;;;;;;;;;137190;1276;22388;-81
2023/05/31 11:18:29;;;;;;;;;;;;;;;;;;137198;1276;22319;-81
2023/05/31 11:21:32;;;;;;;;;;;;;;;;;;136772;1276;22537;-84
2023/05/31 11:24:35;;;;;;;;;;;;;;;;;;137083;1272;22626;-83
2023/05/31 11:27:37;;;;;;;;;;;;;;;;;;137194;1276;22278;-83
2023/05/31 11:30:46;;;;;;;;;;;;;;;;;;137211;1276;22535;-82
2023/05/31 11:33:50;;;;;;;;;;;;;;;;;;137063;1276;22371;-82
2023/05/31 11:36:52;;;;;;;;;;;;;;;;;;137227;1276;22302;-80
2023/05/31 11:39:55;;;;;;;;;;;;;;;;;;137264;1276;22380;-82
2023/05/31 11:42:58;;;;;;;;;;;;;;;;;;137286;1276;22278;-84
2023/05/31 11:46:03;;;;;;;;;;;;;;;;;;137214;1276;22324;-81
2023/05/31 11:49:06;;;;;;;;;;;;;;;;;;137200;1276;22362;-83
2023/05/31 11:52:14;;;;;;;;;;;;;;;;;;137226;1276;22775;-83
2023/05/31 11:55:17;;;;;;;;;;;;;;;;;;137470;1273;22254;-81
2023/05/31 11:58:22;;;;;;;;;;;;;;;;;;137419;1273;22772;-84
2023/05/31 12:01:25;;;;;;;;;;;;;;;;;;137481;1273;22337;-84
2023/05/31 12:04:27;;;;;;;;;;;;;;;;;;137409;1273;23314;-84
2023/05/31 12:07:33;;;;;;;;;;;;;;;;;;137509;1271;22407;-83
2023/05/31 12:10:35;;;;;;;;;;;;;;;;;;137528;1260;22354;-83
2023/05/31 12:13:38;;;;;;;;;;;;;;;;;;137535;1271;22781;-82
2023/05/31 12:16:41;;;;;;;;;;;;;;;;;;137486;1272;23033;-81
2023/05/31 12:19:43;;;;;;;;;;;;;;;;;;137489;1272;22347;-84
2023/05/31 12:22:46;;;;;;;;;;;;;;;;;;137486;1272;22393;-83
2023/05/31 12:25:48;;;;;;;;;;;;;;;;;;137455;1272;22325;-83
2023/05/31 12:28:51;;;;;;;;;;;;;;;;;;137461;1271;22333;-83
2023/05/31 12:31:54;;;;;;;;;;;;;;;;;;137500;1272;22867;-82
2023/05/31 12:34:56;;;;;;;;;;;;;;;;;;137502;1272;22367;-84
2023/05/31 12:37:59;;;;;;;;;;;;;;;;;;137539;1272;22835;-84
2023/05/31 12:41:01;;;;;;;;;;;;;;;;;;137499;1272;23152;-84
2023/05/31 12:44:04;;;;;;;;;;;;;;;;;;137482;1272;22755;-84
2023/05/31 12:47:06;;;;;;;;;;;;;;;;;;137505;1272;22719;-84
2023/05/31 12:50:09;;;;;;;;;;;;;;;;;;137423;1261;22432;-83
2023/05/31 12:53:11;;;;;;;;;;;;;;;;;;137504;1272;22275;-82
2023/05/31 12:56:14;;;;;;;;;;;;;;;;;;137477;1272;22261;-81
2023/05/31 12:59:16;;;;;;;;;;;;;;;;;;137411;1272;22814;-83
2023/05/31 13:02:19;;;;;;;;;;;;;;;;;;137469;1253;22356;-84
2023/05/31 13:05:22;;;;;;;;;;;;;;;;;;137340;1272;22865;-83
2023/05/31 13:08:24;;;;;;;;;;;;;;;;;;137501;1272;22369;-84
2023/05/31 13:11:27;;;;;;;;;;;;;;;;;;137485;1272;22891;-82
2023/05/31 13:14:31;;;;;;;;;;;;;;;;;;137552;1253;22764;-85
2023/05/31 13:17:34;;;;;;;;;;;;;;;;;;137568;1272;22792;-84
2023/05/31 13:20:36;;;;;;;;;;;;;;;;;;137582;1272;22858;-83
2023/05/31 13:23:39;;;;;;;;;;;;;;;;;;137502;1272;22876;-78
2023/05/31 13:26:42;;;;;;;;;;;;;;;;;;137495;1272;22793;-84
2023/05/31 13:29:44;;;;;;;;;;;;;;;;;;137553;1269;22344;-82
2023/05/31 13:32:47;;;;;;;;;;;;;;;;;;137558;1272;22333;-84
2023/05/31 13:35:50;;;;;;;;;;;;;;;;;;137515;1272;23134;-83
2023/05/31 13:38:53;;;;;;;;;;;;;;;;;;137606;1272;23158;-83
2023/05/31 13:41:56;;;;;;;;;;;;;;;;;;137571;1272;22928;-83
2023/05/31 13:44:58;;;;;;;;;;;;;;;;;;137540;1272;22318;-83
2023/05/31 13:48:01;;;;;;;;;;;;;;;;;;137577;1272;23155;-83
2023/05/31 13:51:04;;;;;;;;;;;;;;;;;;137600;1272;22852;-83
2023/05/31 13:54:07;;;;;;;;;;;;;;;;;;137603;1272;22717;-84
2023/05/31 13:57:09;;;;;;;;;;;;;;;;;;137563;1272;22267;-83
2023/05/31 14:00:12;;;;;;;;;;;;;;;;;;137593;1272;22348;-81
2023/05/31 14:03:14;;;;;;;;;;;;;;;;;;137613;1265;22743;-83
2023/05/31 14:06:17;;;;;;;;;;;;;;;;;;137553;1272;22330;-85
2023/05/31 14:09:20;;;;;;;;;;;;;;;;;;137579;1272;22331;-85
2023/05/31 14:12:22;;;;;;;;;;;;;;;;;;137575;1272;23180;-83
2023/05/31 14:15:25;;;;;;;;;;;;;;;;;;137594;1272;22396;-84
2023/05/31 14:18:28;;;;;;;;;;;;;;;;;;137339;1259;23897;-83
2023/05/31 14:21:32;;;;;;;;;;;;;;;;;;137514;1272;22872;-82
2023/05/31 14:24:34;;;;;;;;;;;;;;;;;;137578;1272;22343;-83
2023/05/31 14:27:37;;;;;;;;;;;;;;;;;;137594;1262;22289;-82
2023/05/31 14:30:39;;;;;;;;;;;;;;;;;;137567;1272;22280;-83
2023/05/31 14:33:42;;;;;;;;;;;;;;;;;;137530;1265;22660;-82
2023/05/31 14:36:44;;;;;;;;;;;;;;;;;;137523;1272;22530;-84
2023/05/31 14:39:47;;;;;;;;;;;;;;;;;;137577;1272;22772;-82
2023/05/31 14:42:49;;;;;;;;;;;;;;;;;;137579;1272;22281;-82
2023/05/31 14:45:51;;;;;;;;;;;;;;;;;;137613;1272;22705;-83
2023/05/31 14:48:55;;;;;;;;;;;;;;;;;;137494;1272;22503;-83
2023/05/31 14:51:58;;;;;;;;;;;;;;;;;;137609;1272;22495;-83
2023/05/31 14:55:00;;;;;;;;;;;;;;;;;;137552;1272;22867;-82
2023/05/31 14:58:03;;;;;;;;;;;;;;;;;;137499;1272;22535;-84
2023/05/31 15:01:05;;;;;;;;;;;;;;;;;;137414;1272;22552;-85
2023/05/31 15:04:09;;;;;;;;;;;;;;;;;;137584;1272;22511;-83
2023/05/31 15:07:14;;;;;;;;;;;;;;;;;;137640;1272;22387;-79
2023/05/31 15:10:16;;;;;;;;;;;;;;;;;;137472;1272;22556;-83
2023/05/31 15:13:19;;;;;;;;;;;;;;;;;;137431;1272;22532;-82
2023/05/31 15:16:21;;;;;;;;;;;;;;;;;;137458;1272;22566;-83
2023/05/31 15:19:24;;;;;;;;;;;;;;;;;;137567;1261;22531;-82
2023/05/31 15:22:27;;;;;;;;;;;;;;;;;;137496;1272;22544;-84
2023/05/31 15:25:31;;;;;;;;;;;;;;;;;;137517;1272;22514;-84
2023/05/31 15:28:36;;;;;;;;;;;;;;;;;;137463;1272;22506;-84
2023/05/31 15:31:39;;;;;;;;;;;;;;;;;;137424;1272;22530;-83
2023/05/31 15:34:41;;;;;;;;;;;;;;;;;;137536;1272;22525;-84
2023/05/31 15:37:45;;;;;;;;;;;;;;;;;;137547;1272;22553;-83
2023/05/31 15:40:49;;;;;;;;;;;;;;;;;;137541;1272;22367;-82
2023/05/31 15:43:51;;;;;;;;;;;;;;;;;;137545;1272;22312;-82
2023/05/31 15:46:53;;;;;;;;;;;;;;;;;;137603;1272;22329;-80
2023/05/31 15:49:58;;;;;;;;;;;;;;;;;;137559;1272;22435;-81
2023/05/31 15:53:01;;;;;;;;;;;;;;;;;;137604;1272;22998;-82
2023/05/31 15:56:03;;;;;;;;;;;;;;;;;;137570;1272;22310;-81
2023/05/31 15:59:06;;;;;;;;;;;;;;;;;;137570;1272;23326;-82
2023/05/31 16:02:08;;;;;;;;;;;;;;;;;;137605;1266;22278;-81
2023/05/31 16:05:12;;;;;;;;;;;;;;;;;;137402;1272;22520;-83
2023/05/31 16:08:14;;;;;;;;;;;;;;;;;;137204;1272;22531;-83
2023/05/31 16:11:17;;;;;;;;;;;;;;;;;;137597;1272;22317;-83
2023/05/31 16:14:19;;;;;;;;;;;;;;;;;;137627;1272;22496;-84
2023/05/31 16:17:24;;;;;;;;;;;;;;;;;;137257;1272;22544;-82
2023/05/31 16:20:26;;;;;;;;;;;;;;;;;;137542;1272;22415;-83
2023/05/31 16:23:29;;;;;;;;;;;;;;;;;;137001;1272;22508;-82
2023/05/31 16:26:31;;;;;;;;;;;;;;;;;;137596;1272;22332;-82
2023/05/31 16:29:34;;;;;;;;;;;;;;;;;;137618;1272;22366;-84
2023/05/31 16:32:37;;;;;;;;;;;;;;;;;;137643;1272;22280;-84
2023/05/31 16:35:39;;;;;;;;;;;;;;;;;;137375;1272;22520;-84
2023/05/31 16:38:42;;;;;;;;;;;;;;;;;;137582;1272;22512;-83
2023/05/31 16:41:44;;;;;;;;;;;;;;;;;;137534;1258;22462;-81
2023/05/31 16:44:48;;;;;;;;;;;;;;;;;;137533;1272;22995;-84
2023/05/31 16:47:51;;;;;;;;;;;;;;;;;;137431;1272;22562;-83
2023/05/31 16:50:54;;;;;;;;;;;;;;;;;;137491;1272;22594;-81
2023/05/31 16:53:57;;;;;;;;;;;;;;;;;;137361;1268;22506;-83
2023/05/31 16:57:00;;;;;;;;;;;;;;;;;;137490;1272;22532;-82
2023/05/31 17:00:02;;;;;;;;;;;;;;;;;;137587;1272;22520;-82
2023/05/31 17:03:05;;;;;;;;;;;;;;;;;;137645;1272;22502;-85
2023/05/31 17:06:08;;;;;;;;;;;;;;;;;;137664;1272;22592;-82
2023/05/31 17:09:10;;;;;;;;;;;;;;;;;;137631;1272;22500;-82
2023/05/31 17:12:13;;;;;;;;;;;;;;;;;;137580;1272;22489;-83
2023/05/31 17:15:15;;;;;;;;;;;;;;;;;;137432;1272;22580;-85
2023/05/31 17:18:18;;;;;;;;;;;;;;;;;;137387;1272;22530;-82
2023/05/31 17:21:20;;;;;;;;;;;;;;;;;;137625;1272;22943;-83
2023/05/31 17:24:23;;;;;;;;;;;;;;;;;;137459;1272;22507;-82
2023/05/31 17:27:25;;;;;;;;;;;;;;;;;;137581;1272;22641;-82
2023/05/31 17:30:28;;;;;;;;;;;;;;;;;;137298;1272;22567;-83
2023/05/31 17:33:31;;;;;;;;;;;;;;;;;;137558;1272;22687;-82
2023/05/31 17:36:36;;;;;;;;;;;;;;;;;;137584;1272;22900;-84
2023/05/31 17:39:39;;;;;;;;;;;;;;;;;;137549;1272;22569;-81
2023/05/31 17:42:41;;;;;;;;;;;;;;;;;;137593;1272;22495;-81
2023/05/31 17:45:44;;;;;;;;;;;;;;;;;;137604;1272;22447;-81
2023/05/31 17:48:47;;;;;;;;;;;;;;;;;;137590;1272;22351;-82
2023/05/31 17:51:49;;;;;;;;;;;;;;;;;;137535;1272;22494;-82
2023/05/31 17:54:52;;;;;;;;;;;;;;;;;;137582;1272;22367;-83
2023/05/31 17:57:54;;;;;;;;;;;;;;;;;;137551;1272;22501;-82
2023/05/31 18:00:57;;;;;;;;;;;;;;;;;;137479;1272;22506;-83
2023/05/31 18:04:00;;;;;;;;;;;;;;;;;;137525;1272;22576;-82
2023/05/31 18:07:06;;;;;;;;;;;;;;;;;;137484;1272;25371;-82
2023/05/31 18:10:08;;;;;;;;;;;;;;;;;;137562;1272;22540;-82
2023/05/31 18:13:11;;;;;;;;;;;;;;;;;;137453;1272;22490;-82
2023/05/31 18:16:13;;;;;;;;;;;;;;;;;;137604;1272;22513;-83
2023/05/31 18:19:16;;;;;;;;;;;;;;;;;;137437;1272;22562;-82
2023/05/31 18:22:18;;;;;;;;;;;;;;;;;;137336;1272;22598;-81
2023/05/31 18:25:28;;;;;;;;;;;;;;;;;;137389;1272;22740;-82
2023/05/31 18:28:30;;;;;;;;;;;;;;;;;;137500;1272;22502;-81
2023/05/31 18:31:33;;;;;;;;;;;;;;;;;;137666;1272;22381;-83
2023/05/31 18:34:35;;;;;;;;;;;;;;;;;;137562;1272;22513;-82
2023/05/31 18:37:37;;;;;;;;;;;;;;;;;;137585;1272;22525;-82
2023/05/31 18:40:40;;;;;;;;;;;;;;;;;;137485;1272;25358;-81
2023/05/31 18:43:42;;;;;;;;;;;;;;;;;;137512;1272;22576;-83
2023/05/31 18:46:45;;;;;;;;;;;;;;;;;;137610;1272;22550;-82
2023/05/31 18:49:50;;;;;;;;;;;;;;;;;;137633;1272;22500;-83
2023/05/31 18:52:53;;;;;;;;;;;;;;;;;;137503;1272;23054;-82
2023/05/31 18:55:55;;;;;;;;;;;;;;;;;;137570;1272;22554;-82
2023/05/31 18:58:58;;;;;;;;;;;;;;;;;;137537;1272;22991;-83
2023/05/31 19:02:01;;;;;;;;;;;;;;;;;;137529;1272;22521;-82
2023/05/31 19:05:04;;;;;;;;;;;;;;;;;;137582;1272;22719;-81
2023/05/31 19:08:07;;;;;;;;;;;;;;;;;;137618;1272;22902;-82
2023/05/31 19:11:10;;;;;;;;;;;;;;;;;;137447;1272;23072;-82
2023/05/31 19:14:12;;;;;;;;;;;;;;;;;;137589;1272;22272;-84
2023/05/31 19:17:15;;;;;;;;;;;;;;;;;;137432;1272;22533;-82
2023/05/31 19:20:17;;;;;;;;;;;;;;;;;;137507;1272;22884;-82
2023/05/31 19:23:20;;;;;;;;;;;;;;;;;;137612;1268;22331;-82
2023/05/31 19:26:22;;;;;;;;;;;;;;;;;;137609;1272;22308;-82
2023/05/31 19:29:25;;;;;;;;;;;;;;;;;;137369;1272;22486;-82
2023/05/31 19:32:27;;;;;;;;;;;;;;;;;;137601;1272;22397;-81
2023/05/31 19:35:30;;;;;;;;;;;;;;;;;;137550;1272;22339;-81
2023/05/31 19:38:32;;;;;;;;;;;;;;;;;;137550;1272;22957;-81
2023/05/31 19:41:36;;;;;;;;;;;;;;;;;;137600;1272;22561;-82
2023/05/31 19:44:38;;;;;;;;;;;;;;;;;;137607;1272;23191;-82
2023/05/31 19:47:41;;;;;;;;;;;;;;;;;;137538;1272;22516;-81
2023/05/31 19:50:44;;;;;;;;;;;;;;;;;;137570;1272;22507;-81
2023/05/31 19:53:50;;;;;;;;;;;;;;;;;;137556;1272;22515;-81
2023/05/31 19:56:53;;;;;;;;;;;;;;;;;;137555;1268;22982;-82
2023/05/31 19:59:55;;;;;;;;;;;;;;;;;;137624;1272;22317;-81
2023/05/31 20:02:58;;;;;;;;;;;;;;;;;;137621;1268;22760;-82
2023/05/31 20:06:00;;;;;;;;;;;;;;;;;;137586;1272;22562;-81
2023/05/31 20:09:03;;;;;;;;;;;;;;;;;;137609;1272;22320;-82
2023/05/31 20:12:06;;;;;;;;;;;;;;;;;;137556;1272;23170;-82
2023/05/31 20:15:09;;;;;;;;;;;;;;;;;;137560;1261;22279;-81
2023/05/31 20:18:12;;;;;;;;;;;;;;;;;;137549;1272;22450;-81
2023/05/31 20:21:14;;;;;;;;;;;;;;;;;;137530;1272;22988;-81
2023/05/31 20:24:16;;;;;;;;;;;;;;;;;;137513;1272;22275;-80
2023/05/31 20:27:22;;;;;;;;;;;;;;;;;;137568;1272;22891;-82
2023/05/31 20:30:24;;;;;;;;;;;;;;;;;;137536;1272;22309;-79
2023/05/31 20:33:26;;;;;;;;;;;;;;;;;;137505;1272;22302;-80
2023/05/31 20:36:29;;;;;;;;;;;;;;;;;;137536;1268;22277;-80
2023/05/31 20:39:32;;;;;;;;;;;;;;;;;;137561;1272;22323;-80
2023/05/31 20:42:38;;;;;;;;;;;;;;;;;;137606;1272;22326;-78
2023/05/31 20:45:40;;;;;;;;;;;;;;;;;;137605;1272;22328;-79
2023/05/31 20:48:45;;;;;;;;;;;;;;;;;;137590;1272;23379;-79
2023/05/31 20:51:47;;;;;;;;;;;;;;;;;;137592;1272;22480;-79
2023/05/31 20:54:50;;;;;;;;;;;;;;;;;;137592;1272;22882;-79
2023/05/31 20:57:52;;;;;;;;;;;;;;;;;;137569;1272;22723;-79